Time;durP1;ratioP1;P1;durP2;ratioP2;P2;SDS_P1;SDS_P2;PMS_P1;PMS_P2;Temp;Humidity;BMP_temperature;BMP_pressure;BME280_temperature;BME280_humidity;BME280_pressure;Samples;Min_cycle;Max_cycle;Signal;HPM_P1;HPM_P2
2021/09/25 00:01:15;;;;;;;8.13;5.07;;;17.40;99.90;;;;;;6245816;23;20219;-86
2021/09/25 00:03:41;;;;;;;12.83;5.07;;;17.40;99.90;;;;;;6246854;23;20612;-87
2021/09/25 00:06:06;;;;;;;10.07;5.07;;;17.40;99.90;;;;;;6247599;23;20146;-86
2021/09/25 00:08:32;;;;;;;8.13;5.53;;;17.50;99.90;;;;;;6245271;23;20159;-80
2021/09/25 00:10:58;;;;;;;10.50;5.70;;;17.40;99.90;;;;;;6246097;23;20219;-79
2021/09/25 00:13:23;;;;;;;8.80;5.53;;;17.50;99.90;;;;;;6236826;23;20156;-81
2021/09/25 00:15:49;;;;;;;8.53;5.67;;;17.60;99.90;;;;;;6241587;22;20584;-79
2021/09/25 00:18:15;;;;;;;10.93;6.10;;;17.50;99.90;;;;;;6244545;23;20150;-79
2021/09/25 00:20:41;;;;;;;8.60;5.27;;;17.60;99.90;;;;;;6245256;23;20138;-79
2021/09/25 00:23:06;;;;;;;8.43;5.67;;;17.60;99.90;;;;;;6237217;23;20201;-78
2021/09/25 00:25:32;;;;;;;12.30;6.30;;;17.70;99.90;;;;;;6246126;22;20134;-79
2021/09/25 00:27:58;;;;;;;8.93;5.33;;;17.70;99.90;;;;;;6239991;23;20162;-80
2021/09/25 00:30:24;;;;;;;12.00;6.57;;;17.60;99.90;;;;;;6240012;22;20466;-79
2021/09/25 00:32:51;;;;;;;10.70;7.00;;;17.50;99.90;;;;;;6236067;23;20157;-79
2021/09/25 00:35:18;;;;;;;10.13;6.37;;;17.40;99.90;;;;;;6240467;23;20140;-80
2021/09/25 00:37:44;;;;;;;12.53;7.07;;;17.30;99.90;;;;;;6237820;23;20610;-81
2021/09/25 00:40:12;;;;;;;10.10;7.10;;;17.20;99.90;;;;;;6244861;23;20142;-84
2021/09/25 00:42:38;;;;;;;8.93;6.80;;;17.20;99.90;;;;;;6238446;23;20567;-83
2021/09/25 00:45:06;;;;;;;10.93;7.23;;;17.30;99.90;;;;;;6242754;23;20138;-84
2021/09/25 00:47:32;;;;;;;10.57;6.83;;;17.20;99.90;;;;;;6242727;23;20147;-88
2021/09/25 00:49:57;;;;;;;11.07;7.30;;;17.20;99.90;;;;;;6246475;23;20162;-82
2021/09/25 00:52:23;;;;;;;13.13;7.53;;;17.20;99.90;;;;;;6240287;23;20166;-86
2021/09/25 00:54:49;;;;;;;14.03;7.63;;;17.30;99.90;;;;;;6243019;23;20244;-86
2021/09/25 00:57:15;;;;;;;11.83;7.23;;;17.30;99.90;;;;;;6246509;23;20141;-87
2021/09/25 00:59:42;;;;;;;9.53;7.03;;;17.30;99.90;;;;;;6246518;22;20138;-87
2021/09/25 01:02:11;;;;;;;13.77;7.23;;;17.40;99.90;;;;;;6238102;23;20217;-86
2021/09/25 01:04:37;;;;;;;12.23;7.10;;;17.40;99.90;;;;;;6242573;22;20133;-88
2021/09/25 01:07:03;;;;;;;12.57;7.57;;;17.20;99.90;;;;;;6244342;23;20497;-87
2021/09/25 01:09:28;;;;;;;10.20;7.20;;;17.20;99.90;;;;;;6238810;23;20153;-79
2021/09/25 01:11:56;;;;;;;11.67;7.93;;;17.30;99.90;;;;;;6237289;23;20149;-79
2021/09/25 01:14:22;;;;;;;15.97;8.57;;;17.40;99.90;;;;;;6237385;23;20220;-86
2021/09/25 01:16:47;;;;;;;10.90;8.10;;;17.40;99.90;;;;;;6241790;22;20173;-86
2021/09/25 01:19:13;;;;;;;11.07;7.77;;;17.30;99.90;;;;;;6240346;23;20150;-81
2021/09/25 01:21:39;;;;;;;14.90;8.40;;;17.40;99.90;;;;;;6238590;22;20210;-84
2021/09/25 01:24:05;;;;;;;11.03;7.37;;;17.30;99.90;;;;;;6239865;23;20162;-86
2021/09/25 01:26:31;;;;;;;13.00;7.67;;;17.40;99.90;;;;;;6245990;23;20149;-87
2021/09/25 01:28:56;;;;;;;12.03;7.60;;;17.30;99.90;;;;;;6241641;22;20142;-84
2021/09/25 01:31:22;;;;;;;15.20;7.60;;;17.30;99.90;;;;;;6236040;23;20162;-86
2021/09/25 01:33:50;;;;;;;14.37;8.00;;;17.20;99.90;;;;;;6236830;23;20150;-85
2021/09/25 01:36:17;;;;;;;12.90;7.63;;;17.10;99.90;;;;;;6237055;23;20151;-87
2021/09/25 01:38:45;;;;;;;14.93;7.93;;;17.10;99.90;;;;;;6242253;22;20131;-87
2021/09/25 01:41:13;;;;;;;12.70;7.83;;;17.10;99.90;;;;;;6246385;22;20540;-79
2021/09/25 01:43:38;;;;;;;12.93;7.67;;;17.10;99.90;;;;;;6244285;23;20240;-82
2021/09/25 01:46:04;;;;;;;12.43;7.83;;;17.10;99.90;;;;;;6237283;23;20159;-81
2021/09/25 01:48:30;;;;;;;14.17;8.80;;;17.00;99.90;;;;;;6236345;23;20158;-80
2021/09/25 01:50:55;;;;;;;13.33;7.70;;;17.20;99.90;;;;;;6239188;23;20174;-83
2021/09/25 01:53:22;;;;;;;12.50;7.83;;;17.20;99.90;;;;;;6236755;23;20158;-85
2021/09/25 01:55:48;;;;;;;11.40;8.07;;;17.30;99.90;;;;;;6236721;23;20165;-86
2021/09/25 01:58:14;;;;;;;12.87;8.27;;;17.30;99.90;;;;;;6235608;23;20146;-82
2021/09/25 02:00:40;;;;;;;14.83;7.87;;;17.30;99.90;;;;;;6244259;23;20157;-83
2021/09/25 02:03:10;;;;;;;14.13;8.37;;;17.50;99.90;;;;;;6245674;23;20179;-86
2021/09/25 02:05:35;;;;;;;15.03;9.57;;;17.50;99.90;;;;;;6242852;23;20149;-86
2021/09/25 02:08:03;;;;;;;17.17;9.50;;;17.40;99.90;;;;;;6242824;23;20143;-86
2021/09/25 02:10:28;;;;;;;13.43;9.37;;;17.30;99.90;;;;;;6239896;22;20162;-86
2021/09/25 02:12:54;;;;;;;15.67;9.93;;;17.20;99.90;;;;;;6246365;23;20143;-79
2021/09/25 02:15:20;;;;;;;15.70;9.97;;;17.30;99.90;;;;;;6243386;23;20159;-79
2021/09/25 02:17:45;;;;;;;16.67;10.73;;;17.30;99.90;;;;;;6235818;22;20219;-78
2021/09/25 02:20:12;;;;;;;18.33;9.97;;;17.30;99.90;;;;;;6244235;23;20560;-85
2021/09/25 02:22:38;;;;;;;18.13;11.00;;;17.20;99.90;;;;;;6236259;23;20248;-79
2021/09/25 02:25:07;;;;;;;18.73;12.07;;;17.20;99.90;;;;;;6241228;23;20208;-79
2021/09/25 02:27:33;;;;;;;16.73;10.70;;;17.20;99.90;;;;;;6245782;22;20584;-86
2021/09/25 02:29:58;;;;;;;17.57;11.60;;;17.30;99.90;;;;;;6240402;22;20131;-86
2021/09/25 02:32:24;;;;;;;17.20;11.43;;;17.40;99.90;;;;;;6237906;22;20143;-83
2021/09/25 02:34:50;;;;;;;17.57;11.93;;;17.30;99.90;;;;;;6238123;23;20155;-84
2021/09/25 02:37:15;;;;;;;18.47;11.83;;;17.30;99.90;;;;;;6239003;23;20135;-87
2021/09/25 02:39:41;;;;;;;19.00;12.27;;;17.40;99.90;;;;;;6241058;23;20508;-85
2021/09/25 02:42:07;;;;;;;19.07;12.60;;;17.50;99.90;;;;;;6242787;23;20187;-87
2021/09/25 02:44:32;;;;;;;21.37;13.63;;;17.60;99.90;;;;;;6243776;23;20135;-79
2021/09/25 02:46:58;;;;;;;25.43;13.17;;;17.60;99.90;;;;;;6246066;23;20214;-78
2021/09/25 02:49:24;;;;;;;21.70;13.77;;;17.60;99.90;;;;;;6245608;23;20194;-78
2021/09/25 02:51:50;;;;;;;22.87;13.07;;;17.60;99.90;;;;;;6244329;23;20267;-79
2021/09/25 02:54:16;;;;;;;25.43;15.10;;;17.50;99.90;;;;;;6243028;23;20161;-79
2021/09/25 02:56:42;;;;;;;25.63;16.43;;;17.40;99.90;;;;;;6241003;23;20146;-85
2021/09/25 02:59:08;;;;;;;29.83;16.60;;;17.50;99.90;;;;;;6242533;22;20218;-80
2021/09/25 03:01:33;;;;;;;24.10;15.70;;;17.40;99.90;;;;;;6242446;23;20588;-78
2021/09/25 03:03:59;;;;;;;26.10;14.70;;;17.40;99.90;;;;;;6243185;23;20485;-87
2021/09/25 03:06:26;;;;;;;23.50;14.90;;;17.40;99.90;;;;;;6244256;23;20143;-87
2021/09/25 03:08:53;;;;;;;24.43;15.80;;;17.40;99.90;;;;;;6239658;23;20167;-80
2021/09/25 03:11:19;;;;;;;25.60;15.57;;;17.20;99.90;;;;;;6236311;22;20463;-83
2021/09/25 03:13:45;;;;;;;26.53;16.17;;;17.20;99.90;;;;;;6235119;23;20226;-86
2021/09/25 03:16:14;;;;;;;25.07;15.90;;;17.20;99.90;;;;;;6237782;23;20181;-86
2021/09/25 03:18:40;;;;;;;26.57;17.37;;;17.20;99.90;;;;;;6239992;23;20160;-79
2021/09/25 03:21:06;;;;;;;28.77;16.77;;;17.20;99.90;;;;;;6245603;23;20479;-78
2021/09/25 03:23:31;;;;;;;24.10;15.80;;;17.30;99.90;;;;;;6243078;23;20233;-79
2021/09/25 03:25:57;;;;;;;24.63;15.37;;;17.40;99.90;;;;;;6244057;23;20451;-79
2021/09/25 03:28:23;;;;;;;24.10;15.53;;;17.40;99.90;;;;;;6239638;23;20142;-82
2021/09/25 03:30:48;;;;;;;23.70;15.00;;;17.40;99.90;;;;;;6239388;23;20157;-79
2021/09/25 03:33:14;;;;;;;23.93;14.60;;;17.40;99.90;;;;;;6243712;23;20206;-78
2021/09/25 03:35:46;;;;;;;20.27;14.17;;;17.40;99.90;;;;;;6243717;23;20170;-79
2021/09/25 03:38:19;;;;;;;23.73;15.00;;;17.40;99.90;;;;;;6243839;22;20131;-82
2021/09/25 03:40:45;;;;;;;23.13;15.13;;;17.20;99.90;;;;;;6243217;23;20154;-79
2021/09/25 03:43:12;;;;;;;20.83;13.77;;;17.30;99.90;;;;;;6241676;22;20181;-86
2021/09/25 03:45:37;;;;;;;19.90;14.27;;;17.30;99.90;;;;;;6236163;23;20132;-84
2021/09/25 03:48:05;;;;;;;22.17;13.30;;;17.30;99.90;;;;;;6236271;23;20138;-83
2021/09/25 03:50:32;;;;;;;21.87;14.37;;;17.30;99.90;;;;;;6236380;22;20201;-79
2021/09/25 03:52:57;;;;;;;22.20;14.03;;;17.30;99.90;;;;;;6235113;23;20215;-81
2021/09/25 03:55:23;;;;;;;24.83;14.97;;;17.30;99.90;;;;;;6236459;23;20151;-78
2021/09/25 03:57:48;;;;;;;24.33;15.60;;;17.20;99.90;;;;;;6212064;23;20614;-80
2021/09/25 04:00:15;;;;;;;23.30;14.23;;;17.20;99.90;;;;;;6243313;23;20151;-79
2021/09/25 04:02:40;;;;;;;22.97;14.80;;;17.10;99.90;;;;;;6244612;23;20515;-80
2021/09/25 04:05:06;;;;;;;23.07;14.70;;;17.00;99.90;;;;;;6247328;23;20215;-79
2021/09/25 04:07:32;;;;;;;23.63;14.73;;;16.90;99.90;;;;;;6244921;23;20174;-79
2021/09/25 04:09:58;;;;;;;22.37;14.70;;;17.00;99.90;;;;;;6241620;23;20481;-79
2021/09/25 04:12:23;;;;;;;21.93;14.70;;;16.90;99.90;;;;;;6238706;23;20638;-78
2021/09/25 04:14:49;;;;;;;24.20;15.50;;;17.00;99.90;;;;;;6237991;23;20181;-79
2021/09/25 04:17:15;;;;;;;22.97;15.00;;;16.90;99.90;;;;;;6245490;22;20166;-87
2021/09/25 04:19:40;;;;;;;24.20;13.97;;;17.00;99.90;;;;;;6244524;23;20198;-79
2021/09/25 04:22:06;;;;;;;23.50;14.83;;;16.90;99.90;;;;;;6246464;23;20212;-78
2021/09/25 04:24:32;;;;;;;24.10;15.23;;;16.80;99.90;;;;;;6244543;23;20196;-79
2021/09/25 04:26:57;;;;;;;26.57;15.77;;;16.80;99.90;;;;;;6245263;23;20175;-78
2021/09/25 04:29:23;;;;;;;25.93;15.30;;;16.90;99.90;;;;;;6244298;23;20453;-78
2021/09/25 04:31:48;;;;;;;24.67;14.77;;;16.80;99.90;;;;;;6240051;23;20150;-79
2021/09/25 04:34:15;;;;;;;24.83;15.13;;;16.70;99.90;;;;;;6238688;23;20200;-79
2021/09/25 04:36:41;;;;;;;23.70;15.20;;;16.70;99.90;;;;;;6236840;23;20149;-78
2021/09/25 04:39:07;;;;;;;27.60;15.87;;;16.70;99.90;;;;;;6240370;22;20139;-79
2021/09/25 04:41:33;;;;;;;24.50;15.47;;;16.70;99.90;;;;;;6238231;23;20633;-81
2021/09/25 04:43:59;;;;;;;24.97;15.27;;;16.80;99.90;;;;;;6237594;23;20155;-86
2021/09/25 04:46:25;;;;;;;25.97;14.43;;;16.80;99.90;;;;;;6237169;23;20161;-86
2021/09/25 04:48:51;;;;;;;25.43;15.90;;;16.60;99.90;;;;;;6238553;23;20153;-86
2021/09/25 04:51:17;;;;;;;24.30;14.70;;;16.50;99.90;;;;;;6236917;23;20164;-86
2021/09/25 04:53:43;;;;;;;23.60;15.70;;;16.50;99.90;;;;;;6237839;23;20162;-85
2021/09/25 04:56:09;;;;;;;25.63;15.47;;;16.50;99.90;;;;;;6239704;23;20200;-86
2021/09/25 04:58:34;;;;;;;26.30;15.03;;;16.60;99.90;;;;;;6240892;22;20147;-81
2021/09/25 05:01:01;;;;;;;28.77;16.20;;;16.50;99.90;;;;;;6240324;23;20208;-86
2021/09/25 05:03:27;;;;;;;27.80;16.10;;;16.40;99.90;;;;;;6237242;23;20650;-87
2021/09/25 05:05:52;;;;;;;26.43;15.40;;;16.50;99.90;;;;;;6241060;23;20140;-87
2021/09/25 05:08:18;;;;;;;23.70;14.60;;;16.40;99.90;;;;;;6245796;23;20141;-87
2021/09/25 05:10:45;;;;;;;23.67;14.53;;;16.50;99.90;;;;;;6242888;22;20127;-86
2021/09/25 05:13:11;;;;;;;21.60;14.43;;;16.40;99.90;;;;;;6245428;22;20142;-86
2021/09/25 05:15:36;;;;;;;26.00;15.00;;;16.30;99.90;;;;;;6246882;23;20146;-87
2021/09/25 05:18:02;;;;;;;23.37;14.53;;;16.20;99.90;;;;;;6244837;22;20662;-85
2021/09/25 05:20:28;;;;;;;24.33;14.77;;;16.30;99.90;;;;;;6237042;23;20231;-86
2021/09/25 05:22:53;;;;;;;25.23;15.50;;;16.50;99.90;;;;;;6238306;23;20184;-79
2021/09/25 05:25:19;;;;;;;21.13;14.03;;;16.60;99.90;;;;;;6238833;23;20157;-79
2021/09/25 05:27:48;;;;;;;26.00;15.37;;;16.70;99.90;;;;;;6239457;23;20532;-86
2021/09/25 05:30:13;;;;;;;21.60;14.20;;;16.40;99.90;;;;;;6244832;23;20145;-86
2021/09/25 05:32:39;;;;;;;24.00;14.13;;;16.30;99.90;;;;;;6243094;23;20161;-86
2021/09/25 05:35:05;;;;;;;22.17;14.10;;;16.40;99.90;;;;;;6240564;23;20169;-86
2021/09/25 05:37:31;;;;;;;27.33;14.97;;;16.40;99.90;;;;;;6235903;23;20153;-87
2021/09/25 05:39:56;;;;;;;24.60;14.73;;;16.40;99.90;;;;;;6240650;23;20152;-85
2021/09/25 05:42:23;;;;;;;22.57;14.17;;;16.60;99.90;;;;;;6239012;23;20200;-85
2021/09/25 05:44:50;;;;;;;25.37;15.47;;;16.60;99.90;;;;;;6236199;23;20469;-79
2021/09/25 05:47:15;;;;;;;25.50;16.00;;;16.70;99.90;;;;;;6239700;22;20213;-86
2021/09/25 05:49:42;;;;;;;27.80;16.63;;;16.80;99.90;;;;;;6244428;23;20178;-87
2021/09/25 05:52:09;;;;;;;28.13;16.37;;;16.70;99.90;;;;;;6246638;22;20155;-86
2021/09/25 05:54:36;;;;;;;24.53;14.77;;;16.50;99.90;;;;;;6243347;23;20155;-78
2021/09/25 05:57:02;;;;;;;27.57;17.07;;;16.30;99.90;;;;;;6240098;22;20277;-81
2021/09/25 05:59:28;;;;;;;24.37;15.00;;;16.30;99.90;;;;;;6240509;22;20590;-78
2021/09/25 06:01:54;;;;;;;26.00;16.23;;;16.30;99.90;;;;;;6244027;23;20207;-78
2021/09/25 06:04:19;;;;;;;27.90;15.17;;;16.30;99.90;;;;;;6244646;23;20142;-85
2021/09/25 06:06:46;;;;;;;24.60;15.00;;;16.20;99.90;;;;;;6244156;23;20146;-86
2021/09/25 06:09:11;;;;;;;24.97;15.93;;;16.20;99.90;;;;;;6245470;23;20169;-86
2021/09/25 06:11:37;;;;;;;26.53;16.47;;;16.10;99.90;;;;;;6240603;23;20137;-86
2021/09/25 06:14:02;;;;;;;26.33;14.50;;;16.10;99.90;;;;;;6237519;23;20566;-81
2021/09/25 06:16:28;;;;;;;25.67;15.80;;;16.10;99.90;;;;;;6239176;22;20178;-85
2021/09/25 06:18:54;;;;;;;24.80;15.67;;;16.10;99.90;;;;;;6237435;23;20164;-87
2021/09/25 06:21:20;;;;;;;24.47;14.83;;;16.10;99.90;;;;;;6238593;23;20136;-85
2021/09/25 06:23:46;;;;;;;25.90;15.83;;;16.20;99.90;;;;;;6235704;23;20349;-81
2021/09/25 06:26:13;;;;;;;25.20;14.80;;;16.30;99.90;;;;;;6238755;22;20670;-79
2021/09/25 06:28:39;;;;;;;22.23;14.90;;;16.30;99.90;;;;;;6239341;22;20549;-81
2021/09/25 06:31:04;;;;;;;25.57;14.53;;;16.40;99.90;;;;;;6237330;23;20210;-80
2021/09/25 06:33:30;;;;;;;25.43;15.30;;;16.50;99.90;;;;;;6239923;23;20149;-79
2021/09/25 06:35:56;;;;;;;24.40;14.20;;;16.30;99.90;;;;;;6237909;22;20138;-79
2021/09/25 06:38:22;;;;;;;26.93;16.37;;;16.20;99.90;;;;;;6238745;23;20146;-82
2021/09/25 06:40:48;;;;;;;23.27;14.97;;;16.20;99.90;;;;;;6239349;23;20159;-84
2021/09/25 06:43:13;;;;;;;25.60;14.70;;;16.30;99.90;;;;;;6236642;23;20195;-85
2021/09/25 06:45:40;;;;;;;25.03;15.07;;;16.30;99.90;;;;;;6238433;23;20423;-82
2021/09/25 06:48:06;;;;;;;25.90;15.63;;;16.40;99.90;;;;;;6236353;23;20153;-85
2021/09/25 06:50:32;;;;;;;24.00;14.73;;;16.50;99.90;;;;;;6236086;23;20264;-85
2021/09/25 06:52:58;;;;;;;23.23;14.07;;;16.50;99.90;;;;;;6245008;23;20596;-83
2021/09/25 06:55:24;;;;;;;22.33;14.67;;;16.40;99.90;;;;;;6244926;23;20237;-85
2021/09/25 06:57:53;;;;;;;25.33;15.57;;;16.30;99.90;;;;;;6245549;23;20235;-85
2021/09/25 07:00:19;;;;;;;22.07;14.57;;;16.50;99.90;;;;;;6233025;23;20145;-80
2021/09/25 07:02:44;;;;;;;22.20;13.97;;;16.60;99.90;;;;;;6240041;23;20556;-80
2021/09/25 07:05:10;;;;;;;26.27;14.63;;;16.60;99.90;;;;;;6242964;23;20153;-83
2021/09/25 07:07:36;;;;;;;22.00;13.70;;;16.70;99.90;;;;;;6244053;23;20489;-79
2021/09/25 07:10:04;;;;;;;22.03;14.10;;;16.80;99.90;;;;;;6241825;23;20142;-78
2021/09/25 07:12:30;;;;;;;22.07;13.87;;;16.80;99.90;;;;;;6244204;23;20149;-78
2021/09/25 07:14:56;;;;;;;22.47;13.80;;;16.90;99.90;;;;;;6244579;22;20135;-78
2021/09/25 07:17:24;;;;;;;25.00;14.43;;;17.00;99.90;;;;;;6242311;23;20185;-85
2021/09/25 07:19:50;;;;;;;23.17;14.77;;;16.90;99.90;;;;;;6245833;22;20138;-86
2021/09/25 07:22:16;;;;;;;25.63;15.03;;;17.00;99.90;;;;;;6243834;23;20187;-85
2021/09/25 07:24:41;;;;;;;22.43;14.10;;;17.00;99.90;;;;;;6245063;23;20179;-85
2021/09/25 07:27:07;;;;;;;24.77;14.77;;;17.10;99.90;;;;;;6243854;23;20150;-78
2021/09/25 07:29:33;;;;;;;23.07;14.07;;;17.10;99.90;;;;;;6243886;23;20581;-79
2021/09/25 07:31:58;;;;;;;24.27;14.67;;;17.30;99.90;;;;;;6246049;22;20146;-79
2021/09/25 07:34:24;;;;;;;22.70;14.13;;;17.50;99.90;;;;;;6245993;23;20139;-78
2021/09/25 07:36:50;;;;;;;23.17;14.63;;;17.70;99.90;;;;;;6245517;23;20603;-78
2021/09/25 07:39:16;;;;;;;20.03;13.27;;;17.60;99.90;;;;;;6247390;22;20139;-78
2021/09/25 07:41:41;;;;;;;25.80;15.43;;;17.50;99.90;;;;;;6245544;23;20538;-78
2021/09/25 07:44:07;;;;;;;23.50;15.40;;;17.40;99.90;;;;;;6246922;23;20230;-78
2021/09/25 07:46:33;;;;;;;22.57;14.93;;;17.30;99.90;;;;;;6246003;23;20151;-78
2021/09/25 07:48:59;;;;;;;25.50;14.77;;;17.20;99.90;;;;;;6247481;23;20135;-79
2021/09/25 07:51:26;;;;;;;25.13;15.17;;;17.20;99.90;;;;;;6246207;22;20215;-80
2021/09/25 07:53:54;;;;;;;22.20;13.80;;;17.20;99.90;;;;;;6233790;23;20242;-85
2021/09/25 07:56:20;;;;;;;23.43;14.00;;;17.10;99.90;;;;;;6243920;22;20199;-84
2021/09/25 07:58:45;;;;;;;23.90;13.90;;;17.20;99.90;;;;;;6244235;23;20482;-85
2021/09/25 08:01:11;;;;;;;20.97;14.10;;;17.30;99.90;;;;;;6245223;23;20168;-77
2021/09/25 08:03:36;;;;;;;23.73;14.20;;;17.40;99.90;;;;;;6244207;23;20642;-78
2021/09/25 08:06:02;;;;;;;20.07;12.90;;;17.50;99.90;;;;;;6245454;23;20222;-82
2021/09/25 08:08:28;;;;;;;20.70;13.27;;;17.50;99.90;;;;;;6244697;22;20579;-79
2021/09/25 08:10:54;;;;;;;24.40;12.97;;;17.50;99.90;;;;;;6240885;23;20142;-79
2021/09/25 08:13:19;;;;;;;22.43;12.67;;;17.60;99.90;;;;;;6240561;23;20177;-78
2021/09/25 08:15:45;;;;;;;19.97;12.33;;;17.90;99.90;;;;;;6245362;22;20139;-79
2021/09/25 08:18:11;;;;;;;19.33;12.77;;;17.90;99.90;;;;;;6245249;22;20185;-77
2021/09/25 08:20:37;;;;;;;17.13;12.00;;;18.00;99.90;;;;;;6246634;23;20154;-78
2021/09/25 08:23:02;;;;;;;18.87;12.77;;;18.10;99.90;;;;;;6245982;23;20256;-81
2021/09/25 08:25:28;;;;;;;17.93;10.97;;;18.10;99.90;;;;;;6244974;23;20584;-79
2021/09/25 08:27:54;;;;;;;20.77;13.03;;;18.20;99.90;;;;;;6244055;23;20151;-85
2021/09/25 08:30:20;;;;;;;18.67;11.83;;;18.10;99.90;;;;;;6244369;23;20221;-78
2021/09/25 08:32:47;;;;;;;20.37;12.20;;;18.10;99.90;;;;;;6244114;22;20181;-79
2021/09/25 08:35:12;;;;;;;21.57;12.53;;;18.10;99.90;;;;;;6242396;23;20221;-79
2021/09/25 08:37:40;;;;;;;19.10;11.63;;;18.20;99.90;;;;;;6242231;23;20595;-78
2021/09/25 08:40:09;;;;;;;22.37;11.70;;;18.20;99.90;;;;;;6245740;22;20139;-77
2021/09/25 08:42:35;;;;;;;17.70;12.00;;;18.20;99.90;;;;;;6244457;22;20211;-79
2021/09/25 08:45:03;;;;;;;19.07;12.73;;;18.20;99.90;;;;;;6247108;22;20150;-85
2021/09/25 08:47:29;;;;;;;20.20;12.47;;;18.20;99.90;;;;;;6245046;23;20147;-85
2021/09/25 08:49:54;;;;;;;18.43;12.70;;;18.20;99.90;;;;;;6247259;22;20136;-85
2021/09/25 08:52:20;;;;;;;21.57;13.10;;;18.30;99.90;;;;;;6240953;23;20170;-85
2021/09/25 08:54:46;;;;;;;24.97;13.10;;;18.40;99.90;;;;;;6246643;23;20519;-83
2021/09/25 08:57:12;;;;;;;18.93;12.33;;;18.50;99.90;;;;;;6246444;23;20139;-86
2021/09/25 08:59:38;;;;;;;17.97;12.33;;;18.50;99.90;;;;;;6247240;23;20133;-86
2021/09/25 09:02:11;;;;;;;20.07;14.00;;;18.40;99.90;;;;;;6244555;23;20184;-78
2021/09/25 09:05:03;;;;;;;21.10;13.17;;;18.40;99.90;;;;;;6244959;23;20180;-79
2021/09/25 09:07:29;;;;;;;19.23;12.67;;;18.40;99.90;;;;;;6242261;22;20154;-86
2021/09/25 09:09:57;;;;;;;19.30;12.77;;;18.50;99.90;;;;;;6245880;22;20138;-78
2021/09/25 09:12:25;;;;;;;18.90;11.57;;;18.60;99.90;;;;;;6244966;23;20151;-78
2021/09/25 09:14:52;;;;;;;20.20;12.73;;;18.70;99.90;;;;;;6246652;22;20516;-85
2021/09/25 09:17:26;;;;;;;19.50;13.53;;;18.70;99.90;;;;;;6244910;23;20189;-89
2021/09/25 09:19:54;;;;;;;16.77;12.63;;;18.70;99.90;;;;;;6244338;23;20562;-82
2021/09/25 09:22:22;;;;;;;19.73;12.90;;;18.70;99.90;;;;;;6243847;22;20191;-85
2021/09/25 09:24:54;;;;;;;18.73;12.97;;;18.70;99.90;;;;;;6244336;23;20658;-85
2021/09/25 09:27:25;;;;;;;23.00;12.77;;;18.70;99.90;;;;;;6245137;23;20153;-84
2021/09/25 09:30:05;;;;;;;17.73;12.83;;;18.80;99.90;;;;;;6245799;22;20135;-83
2021/09/25 09:32:33;;;;;;;22.63;13.10;;;18.80;99.90;;;;;;6243374;22;20182;-85
2021/09/25 09:35:08;;;;;;;17.73;11.97;;;18.90;99.90;;;;;;6243682;23;20159;-82
2021/09/25 09:37:34;;;;;;;14.90;10.93;;;19.00;99.90;;;;;;6244740;23;20663;-85
2021/09/25 09:40:03;;;;;;;18.70;11.57;;;19.10;99.90;;;;;;6245539;23;20143;-84
2021/09/25 09:42:45;;;;;;;14.13;9.90;;;19.20;99.90;;;;;;6245404;22;20176;-85
2021/09/25 09:45:11;;;;;;;15.00;10.80;;;19.30;99.90;;;;;;6245939;22;20233;-85
2021/09/25 09:47:45;;;;;;;17.83;10.10;;;19.20;99.90;;;;;;6244406;23;20144;-84
2021/09/25 09:50:13;;;;;;;15.87;10.87;;;19.20;99.90;;;;;;6244130;23;20235;-85
2021/09/25 09:52:39;;;;;;;15.33;10.20;;;19.20;99.90;;;;;;6244158;22;20156;-85
2021/09/25 09:55:06;;;;;;;15.90;10.40;;;19.20;99.90;;;;;;6245543;22;20139;-85
2021/09/25 09:57:34;;;;;;;13.17;8.73;;;19.30;99.90;;;;;;6244460;23;20614;-82
2021/09/25 10:00:00;;;;;;;14.57;9.97;;;19.30;99.90;;;;;;6246138;22;20568;-79
2021/09/25 10:02:26;;;;;;;13.20;9.23;;;19.40;99.90;;;;;;6244288;23;20250;-80
2021/09/25 10:04:52;;;;;;;14.67;9.37;;;19.50;99.90;;;;;;6245594;22;20140;-82
2021/09/25 10:07:18;;;;;;;11.27;7.97;;;19.60;99.90;;;;;;6246021;23;20210;-80
2021/09/25 10:09:44;;;;;;;12.67;8.47;;;19.50;99.90;;;;;;6243778;23;20151;-84
2021/09/25 10:12:12;;;;;;;13.00;7.93;;;19.50;99.90;;;;;;6244084;23;20150;-78
2021/09/25 10:14:41;;;;;;;10.43;7.70;;;19.70;99.90;;;;;;6243959;23;20554;-78
2021/09/25 10:17:09;;;;;;;11.83;7.80;;;19.70;99.90;;;;;;6244124;22;20175;-78
2021/09/25 10:19:35;;;;;;;12.47;7.90;;;19.70;99.90;;;;;;6245691;22;20215;-78
2021/09/25 10:22:24;;;;;;;12.23;8.17;;;19.80;99.90;;;;;;6245328;22;20603;-78
2021/09/25 10:24:57;;;;;;;11.20;7.67;;;19.90;99.90;;;;;;6243760;23;20247;-78
2021/09/25 10:27:27;;;;;;;13.13;8.40;;;20.10;99.90;;;;;;6244107;23;20163;-79
2021/09/25 10:29:53;;;;;;;10.67;7.80;;;20.30;99.90;;;;;;6245740;22;20136;-78
2021/09/25 10:32:26;;;;;;;11.10;7.80;;;20.60;99.90;;;;;;6245709;23;20590;-79
2021/09/25 10:35:06;;;;;;;12.43;7.77;;;20.90;99.90;;;;;;6243674;23;20142;-79
2021/09/25 10:37:39;;;;;;;12.93;7.77;;;21.10;99.90;;;;;;6241741;23;20612;-78
2021/09/25 10:40:11;;;;;;;12.53;8.87;;;21.60;99.90;;;;;;6241380;23;20594;-78
2021/09/25 10:42:48;;;;;;;9.77;6.80;;;22.10;99.90;;;;;;6242795;22;20169;-79
2021/09/25 10:45:36;;;;;;;10.50;6.97;;;23.20;99.90;;;;;;6241302;23;20234;-78
2021/09/25 10:48:15;;;;;;;10.27;7.70;;;24.10;99.90;;;;;;6241577;23;20143;-79
2021/09/25 10:51:08;;;;;;;11.73;7.80;;;25.10;98.90;;;;;;6242996;23;20166;-81
2021/09/25 10:53:37;;;;;;;9.80;6.33;;;26.00;97.30;;;;;;6245313;22;20567;-79
2021/09/25 10:56:05;;;;;;;6.40;4.30;;;26.80;95.90;;;;;;6244001;23;20543;-78
2021/09/25 10:58:34;;;;;;;4.90;3.23;;;27.30;93.00;;;;;;6244942;22;20595;-80
2021/09/25 11:00:59;;;;;;;4.70;4.00;;;27.60;91.00;;;;;;6234610;22;20396;-79
2021/09/25 11:03:44;;;;;;;6.70;5.17;;;28.00;91.50;;;;;;6243599;23;20655;-83
2021/09/25 11:06:29;;;;;;;5.83;4.77;;;28.30;91.00;;;;;;6245250;23;20162;-79
2021/09/25 11:09:03;;;;;;;6.90;5.10;;;29.40;90.10;;;;;;6244069;22;20142;-79
2021/09/25 11:11:51;;;;;;;4.88;3.67;;;29.90;89.00;;;;;;6244671;23;20210;-79
2021/09/25 11:14:21;;;;;;;4.47;4.05;;;30.70;86.00;;;;;;6246347;22;20174;-79
2021/09/25 11:17:10;;;;;;;7.95;4.45;;;31.30;82.50;;;;;;6247020;22;20160;-79
2021/09/25 11:19:42;;;;;;;5.15;3.60;;;31.30;82.50;;;;;;6245846;23;20636;-79
2021/09/25 11:22:33;;;;;;;3.40;3.03;;;31.90;79.70;;;;;;6246325;22;20202;-78
2021/09/25 11:25:03;;;;;;;7.10;2.78;;;32.00;78.90;;;;;;6242736;23;20159;-79
2021/09/25 11:27:41;;;;;;;3.75;3.15;;;32.40;78.00;;;;;;6244876;23;20267;-79
2021/09/25 11:30:10;;;;;;;5.13;3.38;;;33.60;74.10;;;;;;6246198;22;20139;-82
2021/09/25 11:32:36;;;;;;;3.95;3.50;;;33.70;73.10;;;;;;6245498;23;20487;-89
2021/09/25 11:35:06;;;;;;;5.57;3.40;;;33.40;72.10;;;;;;6246939;23;20166;-88
2021/09/25 11:37:32;;;;;;;3.38;2.83;;;33.60;71.50;;;;;;6245933;23;20155;-91
2021/09/25 11:39:59;;;;;;;4.22;3.17;;;33.60;70.70;;;;;;6250558;23;20146;-89
2021/09/25 11:42:31;;;;;;;5.32;3.35;;;33.10;70.50;;;;;;6255722;23;20274;-89
2021/09/25 11:45:06;;;;;;;5.93;3.40;;;32.50;71.70;;;;;;6247768;22;20215;-88
2021/09/25 11:47:44;;;;;;;3.53;3.20;;;32.00;72.20;;;;;;6247747;22;20181;-88
2021/09/25 11:50:22;;;;;;;3.53;2.60;;;31.80;72.80;;;;;;6250586;23;20147;-86
2021/09/25 11:52:52;;;;;;;4.38;2.80;;;31.60;73.10;;;;;;6250849;23;20158;-89
2021/09/25 11:55:19;;;;;;;5.22;3.17;;;31.40;74.20;;;;;;6252332;22;20160;-89
2021/09/25 11:57:50;;;;;;;3.50;3.15;;;31.40;74.60;;;;;;6253759;22;20162;-87
2021/09/25 12:00:27;;;;;;;3.70;2.97;;;31.60;74.10;;;;;;6249683;23;20140;-81
2021/09/25 12:02:55;;;;;;;4.05;3.25;;;32.30;73.20;;;;;;6250843;23;20205;-88
2021/09/25 12:05:32;;;;;;;3.50;3.00;;;32.70;73.10;;;;;;6251471;23;20152;-88
2021/09/25 12:08:03;;;;;;;5.97;2.85;;;33.40;71.40;;;;;;6250116;23;20238;-82
2021/09/25 12:10:31;;;;;;;3.47;3.17;;;33.90;71.30;;;;;;6251504;22;20214;-86
2021/09/25 12:13:07;;;;;;;2.80;2.55;;;34.40;69.90;;;;;;6253161;23;20523;-88
2021/09/25 12:15:42;;;;;;;3.03;2.60;;;34.70;69.20;;;;;;6254995;22;20139;-84
2021/09/25 12:18:16;;;;;;;5.15;2.95;;;35.20;69.00;;;;;;6252971;23;20204;-89
2021/09/25 12:20:56;;;;;;;3.08;2.03;;;35.70;67.50;;;;;;6253901;23;20132;-88
2021/09/25 12:23:26;;;;;;;2.72;2.50;;;36.40;66.20;;;;;;6252606;23;20187;-87
2021/09/25 12:25:52;;;;;;;2.17;1.98;;;36.90;65.90;;;;;;6254802;22;20132;-87
2021/09/25 12:28:28;;;;;;;3.67;2.33;;;37.20;64.20;;;;;;6253262;22;20132;-89
2021/09/25 12:30:59;;;;;;;3.10;1.83;;;37.90;62.30;;;;;;6252733;22;20354;-81
2021/09/25 12:33:24;;;;;;;1.65;1.55;;;37.90;62.00;;;;;;6248986;23;20147;-81
2021/09/25 12:35:59;;;;;;;2.45;1.90;;;37.90;62.20;;;;;;6249303;23;20152;-89